LiveATC.Net - Listen to live air traffic control over the Internet! Contact LiveATC.net for advertising information


ICAO: KAEG  IATA: AEG   Airport: Double Eagle II Airport
City: Albuquerque   State/Province: New Mexico
Country: United States   Continent: North America
KAEG METAR Weather: KAEG 020755Z AUTO 31004KT 10SM BKN100 10/01 A3007 RMK AO2 T01020014
KAEG Flight Activity (FlightAware)
KAEG Airport Info   (AirNav) (iFlightPlanner)
KAEG Del/Gnd/Twr
Feed Status: DOWN
Last heard on: 2014-07-07 21:46:03 (86 days 10 hours 43 minutes ago)
KAEG Del/Gnd/Twr Audio Archives
FacilityFrequency


NOTICE

Unauthorized use prohibited. See LiveATC.net Terms of Service


Find LiveATC Audio Streams


Airport/ARTCC Code

Frequency
(e.g., 124.400, 128.75)
Site-wide search

Browse LiveATC Feeds
LiveATC Coverage Map
Top 50 LiveATC Feeds
Bad Weather Areas

LiveATC FAQ
Offer a LiveATC Feed
Contact LiveATC.net
Press Inquiries

LiveATC on iPhone
LiveATC on Android

LiveATC Mobile
(Mobile browser)

ATC Audio Archives
Interesting Recordings

LiveATC Forums


Home Page
About LiveATC.net
Make a Donation
LiveATC Bookstore

Terms of Use
Privacy Policy

ATC/Radar Sites
U.S. ARTCC Freqs
Canadian Air Freqs

AIRMETs/SIGMETs

FAA Airport Status
Nat'l Airspace Status
Arrival Demand Charts


Server Software By:
Icecast.org
Liquidsoap

Please make a donation to help us keep growing!